There are no active watches, warnings or advisories



For GOD so loved the world that HE gave HIS one and only SON, that whoever believes in HIM shall not perish but have eternal life.


Thunder radar more information blitzortung!


Rain radar more information rain snow radar



Nearby METAR Reports

   
SBAE - Bauru, Brazil
Updated: Dec 31 1969 7:00 pm
NOT Current
  
  
   Wind: Calm
Wind: Calm
KMCO - Orlando, Florida
Updated: Oct 22 2018 10:53 am
Mostly Cloudy  
Mostly Cloudy  
   Wind: East 15 mph<br />Gust to 15 mph
Wind: East 15 mph
Gust to 15 mph
Temperature: 77°F
Dew Point: 57.2°F
Humidity: 51%
Barometer: 30.18 inHg
Clouds: Mostly Cloudy
Visibility: 10 mi
Cloud details: Few Clouds 4000 ft,
Mostly Cloudy 25000 ft
KMCO 221453Z 08013G18KT 10SM FEW040 BKN250 25/14 A3018 RMK AO2 SLP219 T02500144 50013
KJHW - Jamestown, NY
Updated: Oct 22 2018 10:56 am
Overcast  
Overcast  
   Wind: SSW 11.5 mph
Wind: SSW 11.5 mph
Temperature: 39.2°F
Wind Chill: 32°F
Dew Point: 30.2°F
Humidity: 70%
Barometer: 30.1 inHg
Clouds: Overcast
Visibility: 10 mi
Cloud details: Overcast 7000 ft
KJHW 221456Z AUTO 21010KT 10SM OVC070 04/M01 A3010 RMK AO2 SLP210 T00441006 58002
KSAT - San Antinio, TX
Updated: Oct 22 2018 10:51 am
Overcast  
Overcast  
   Wind: North 8.1 mph
Wind: North 8.1 mph
Temperature: 60.8°F
Dew Point: 46.4°F
Humidity: 59%
Barometer: 30.21 inHg
Clouds: Overcast
Visibility: 10 mi
Cloud details: Overcast 15000 ft
KSAT 221451Z 01007KT 10SM OVC150 16/08 A3021 RMK AO2 SLP217 T01560083 53010
KPHX - Carefree, AZ
Updated: Oct 22 2018 10:51 am
Mostly Cloudy  
Mostly Cloudy  
   Wind: ESE 6.9 mph
Wind: ESE 6.9 mph
Temperature: 71.6°F
Dew Point: 57.2°F
Humidity: 61%
Barometer: 29.88 inHg
Clouds: Mostly Cloudy
Visibility: 10 mi
Cloud details: Partly Cloudy 7000 ft,
Mostly Cloudy 25000 ft
KPHX 221451Z 11006KT 10SM SCT070 BKN250 22/14 A2988 RMK AO2 SLP104 T02220139 53011
 

Script developed by  Saratoga-weather.org Adapted for the template by  Weerstation Leuven